createdAt,value
2019-03-05T04:01:15.916Z,3.70
2019-03-05T04:03:44.530Z,3.70
2019-03-05T04:06:13.110Z,3.70
2019-03-05T04:08:42.056Z,3.70
2019-03-05T04:11:10.635Z,3.70
2019-03-05T04:13:39.215Z,3.60
2019-03-05T04:16:07.803Z,3.60
2019-03-05T04:18:36.370Z,3.70
2019-03-05T04:21:04.934Z,3.70
2019-03-05T04:23:33.549Z,3.70
2019-03-05T04:26:02.122Z,3.70
2019-03-05T04:28:30.730Z,3.70
2019-03-05T04:30:59.576Z,3.70
2019-03-05T04:33:28.143Z,3.70
2019-03-05T04:35:56.785Z,3.70
2019-03-05T04:38:25.361Z,3.70
2019-03-05T04:40:53.953Z,3.70
2019-03-05T04:43:22.526Z,3.80
2019-03-05T04:46:16.379Z,3.80
2019-03-05T04:48:46.617Z,3.80
2019-03-05T04:51:21.829Z,3.80
2019-03-05T04:53:50.397Z,3.70
2019-03-05T04:56:18.969Z,3.70
2019-03-05T04:58:47.914Z,3.70
2019-03-05T05:01:16.757Z,3.70
2019-03-05T05:03:45.393Z,3.70
2019-03-05T05:06:13.998Z,3.70
2019-03-05T05:08:42.561Z,3.70
2019-03-05T05:11:11.154Z,3.70
2019-03-05T06:22:29.555Z,3.90
2019-03-05T06:24:58.189Z,4.00
2019-03-05T06:27:26.816Z,4.10
2019-03-05T06:29:55.455Z,4.20
2019-03-05T06:32:24.084Z,4.30
2019-03-05T06:34:52.731Z,4.40
2019-03-05T06:37:21.647Z,4.50
2019-03-05T06:39:50.285Z,4.70
2019-03-05T06:42:18.935Z,4.80
2019-03-05T06:44:47.628Z,4.90
2019-03-05T06:47:16.349Z,5.00
2019-03-05T06:49:44.996Z,5.10
2019-03-05T06:52:13.626Z,5.10
2019-03-05T06:54:42.278Z,5.20
2019-03-05T06:57:10.977Z,5.30
2019-03-05T06:59:39.716Z,5.40
2019-03-05T07:02:08.393Z,5.60
2019-03-05T07:04:37.070Z,5.90
2019-03-05T07:07:05.737Z,6.20
2019-03-05T07:10:05.261Z,6.50
2019-03-05T07:13:00.473Z,6.60
2019-03-05T07:15:37.939Z,6.90
2019-03-05T07:18:13.972Z,7.10
2019-03-05T07:21:45.031Z,7.40
2019-03-05T07:24:46.031Z,7.40
2019-03-05T07:27:23.177Z,7.20
2019-03-05T07:29:52.101Z,7.30
2019-03-05T07:32:20.796Z,7.30
2019-03-05T07:34:50.167Z,7.30
2019-03-05T07:37:18.932Z,7.40
2019-03-05T07:39:47.624Z,7.50
2019-03-05T07:42:16.292Z,7.70
2019-03-05T07:44:44.927Z,8.20
2019-03-05T07:47:13.551Z,9.00
2019-03-05T07:49:44.056Z,10.10
2019-03-05T07:52:12.577Z,11.60
2019-03-05T07:54:41.248Z,12.90
2019-03-05T07:57:09.888Z,14.30
2019-03-05T07:59:38.515Z,14.60
2019-03-05T08:02:07.171Z,14.20
2019-03-05T08:04:35.808Z,14.50
2019-03-05T08:07:04.643Z,15.20
2019-03-05T08:09:37.640Z,15.80
2019-03-05T08:12:32.957Z,16.30
2019-03-05T08:15:46.800Z,16.70
2019-03-05T08:18:15.461Z,17.80
2019-03-05T08:20:44.166Z,18.00
2019-03-05T08:23:12.796Z,18.40
2019-03-05T08:25:41.513Z,18.40
2019-03-05T08:28:10.237Z,18.40
2019-03-05T08:30:38.901Z,19.50
2019-03-05T08:33:07.608Z,19.20
2019-03-05T08:35:36.248Z,19.70
2019-03-05T08:38:04.971Z,19.40
2019-03-05T08:40:33.965Z,18.70
2019-03-05T08:43:02.696Z,19.80
2019-03-05T08:45:31.370Z,20.20
2019-03-05T08:48:00.012Z,19.20
2019-03-05T08:50:28.675Z,18.30
2019-03-05T08:52:57.309Z,17.20
2019-03-05T08:55:25.962Z,16.50
2019-03-05T08:57:54.595Z,16.20
2019-03-05T09:00:23.416Z,16.40
2019-03-05T09:02:52.332Z,17.20
2019-03-05T09:05:20.958Z,17.50
2019-03-05T09:07:49.950Z,17.20
2019-03-05T09:10:19.680Z,17.50
2019-03-05T09:12:48.358Z,18.40
2019-03-05T09:15:17.399Z,18.50
2019-03-05T09:17:46.035Z,17.70
2019-03-05T09:20:15.856Z,16.30
2019-03-05T09:22:44.560Z,16.10
2019-03-05T09:25:13.968Z,17.00
2019-03-05T09:27:42.999Z,17.30
2019-03-05T09:30:15.080Z,17.10
2019-03-05T09:32:43.731Z,16.50
2019-03-05T09:35:12.800Z,15.80
2019-03-05T09:37:41.492Z,15.50
2019-03-05T09:40:15.987Z,14.60
2019-03-05T09:42:44.716Z,13.90
2019-03-05T09:45:14.944Z,13.20
2019-03-05T09:47:43.572Z,12.60
2019-03-05T09:50:13.856Z,13.20
2019-03-05T09:52:51.219Z,13.40
2019-03-05T09:55:15.352Z,13.40
2019-03-05T09:57:44.015Z,13.80
2019-03-05T10:00:15.477Z,13.80
2019-03-05T10:02:44.130Z,13.80
2019-03-05T10:05:13.429Z,13.90
2019-03-05T10:07:42.068Z,13.70
2019-03-05T10:10:12.812Z,13.80
2019-03-05T10:12:41.441Z,14.20
2019-03-05T10:15:13.140Z,14.30
2019-03-05T10:17:41.781Z,14.50
2019-03-05T10:20:13.368Z,15.40
2019-03-05T10:22:42.032Z,16.40
2019-03-05T10:25:12.934Z,16.50
2019-03-05T10:27:41.703Z,16.60
2019-03-05T10:30:25.098Z,16.40
2019-03-05T10:32:52.871Z,15.70
2019-03-05T10:35:22.918Z,14.40
2019-03-05T10:37:51.537Z,13.90
2019-03-05T10:40:20.845Z,14.20
2019-03-05T10:42:49.496Z,15.00
2019-03-05T10:45:18.356Z,15.10
2019-03-05T10:47:47.665Z,14.60
2019-03-05T10:50:18.482Z,14.20
2019-03-05T10:52:47.144Z,13.90
2019-03-05T10:55:25.979Z,14.20
2019-03-05T10:57:46.269Z,15.00
2019-03-05T11:00:17.352Z,15.80
2019-03-05T11:02:45.979Z,16.70
2019-03-05T11:05:14.616Z,17.20
2019-03-05T11:07:43.600Z,16.50
2019-03-05T11:10:12.353Z,15.60
2019-03-05T11:12:41.044Z,14.90
2019-03-05T11:15:14.848Z,14.70
2019-03-05T11:17:43.784Z,14.50
2019-03-05T11:20:12.440Z,14.50
2019-03-05T11:22:41.216Z,14.40
2019-03-05T11:25:10.652Z,14.60
2019-03-05T11:27:39.276Z,14.60
2019-03-05T11:30:11.508Z,14.30
2019-03-05T11:32:40.491Z,13.90
2019-03-05T11:35:09.586Z,13.60
2019-03-05T11:37:38.571Z,13.30
2019-03-05T11:40:09.303Z,13.40
2019-03-05T11:42:37.940Z,13.30
2019-03-05T11:45:11.631Z,13.40
2019-03-05T11:47:39.367Z,13.50
2019-03-05T11:50:08.663Z,13.60
2019-03-05T11:52:37.328Z,13.50
2019-03-05T11:55:06.463Z,13.30
2019-03-05T11:57:35.256Z,13.10
2019-03-05T12:00:04.094Z,13.20
2019-03-05T12:02:32.749Z,13.10
2019-03-05T12:05:01.380Z,13.30
2019-03-05T12:07:30.045Z,13.40
2019-03-05T12:09:58.707Z,13.40
2019-03-05T12:12:27.411Z,13.40
2019-03-05T12:14:56.064Z,13.60
2019-03-05T12:17:24.704Z,14.00
2019-03-05T12:19:53.364Z,14.20
2019-03-05T12:22:22.025Z,14.00
2019-03-05T12:24:50.701Z,13.40
2019-03-05T12:27:19.368Z,13.20
2019-03-05T12:29:48.016Z,13.00
2019-03-05T12:32:16.689Z,12.80
2019-03-05T12:34:45.319Z,12.60
2019-03-05T12:37:13.954Z,12.50
2019-03-05T12:39:42.917Z,12.40
2019-03-05T12:42:11.557Z,12.50
2019-03-05T12:44:40.212Z,12.70
2019-03-05T12:47:08.846Z,13.00
2019-03-05T12:49:37.468Z,13.20
2019-03-05T12:52:06.128Z,13.00
2019-03-05T12:54:34.789Z,12.90
2019-03-05T12:57:03.463Z,12.80
2019-03-05T12:59:32.104Z,12.60
2019-03-05T13:02:00.766Z,12.50
2019-03-05T13:04:29.496Z,12.60
2019-03-05T13:06:58.168Z,12.50
2019-03-05T13:09:26.881Z,12.40
2019-03-05T13:11:55.508Z,12.20
2019-03-05T13:14:24.135Z,12.00
2019-03-05T13:16:52.797Z,11.90
2019-03-05T13:19:21.497Z,11.80
2019-03-05T13:21:50.309Z,11.60
2019-03-05T13:24:19.074Z,11.50
2019-03-05T13:26:47.722Z,11.40
2019-03-05T13:29:19.331Z,11.20
2019-03-05T13:31:47.108Z,11.10
2019-03-05T13:34:17.845Z,11.00
2019-03-05T13:36:50.631Z,10.80
2019-03-05T13:39:22.444Z,10.70
2019-03-05T13:41:50.399Z,10.60
2019-03-05T13:44:32.268Z,10.40
2019-03-05T13:47:00.995Z,10.30
2019-03-05T13:49:58.716Z,10.10
2019-03-05T13:53:01.998Z,10.10
2019-03-05T13:56:03.989Z,9.90
2019-03-05T13:58:54.540Z,10.00
2019-03-05T14:01:23.188Z,10.00
2019-03-05T14:04:05.328Z,10.00
2019-03-05T14:07:11.205Z,9.90
2019-03-05T14:09:38.983Z,9.80
2019-03-05T14:12:07.646Z,9.50
2019-03-05T14:14:36.256Z,9.40
2019-03-05T14:17:17.447Z,9.10
2019-03-05T14:19:46.099Z,8.90
2019-03-05T14:22:16.844Z,8.80
2019-03-05T14:24:45.915Z,8.60
2019-03-05T14:27:15.138Z,8.40
2019-03-05T14:29:44.141Z,8.30
2019-03-05T14:32:14.219Z,8.10
2019-03-05T14:34:44.669Z,8.10
2019-03-05T14:37:14.005Z,8.00
2019-03-05T14:39:43.623Z,8.00
2019-03-05T14:42:13.572Z,8.10
2019-03-05T14:44:43.950Z,8.00
2019-03-05T14:47:15.077Z,7.90
2019-03-05T14:49:44.968Z,7.90
2019-03-05T14:52:13.780Z,7.80
2019-03-05T14:54:42.451Z,7.80
2019-03-05T14:57:11.490Z,7.80
2019-03-05T14:59:40.275Z,7.80
2019-03-05T15:02:09.133Z,7.60
2019-03-05T15:04:37.896Z,7.60
2019-03-05T15:07:06.578Z,7.60
2019-03-05T15:09:35.274Z,7.60
2019-03-05T15:12:04.079Z,7.50
2019-03-05T15:14:32.797Z,7.40
2019-03-05T15:17:01.479Z,7.30
2019-03-05T15:19:30.156Z,7.20
2019-03-05T15:21:58.893Z,7.10
2019-03-05T15:24:27.588Z,7.10
2019-03-05T15:26:56.312Z,7.00
2019-03-05T15:29:25.098Z,7.10
2019-03-05T15:31:53.827Z,7.00
2019-03-05T15:34:22.767Z,7.00
2019-03-05T15:36:52.152Z,7.00
2019-03-05T15:39:21.039Z,7.00
2019-03-05T15:41:49.810Z,7.00
2019-03-05T15:44:18.466Z,7.00
2019-03-05T15:46:47.116Z,7.00
2019-03-05T15:49:15.816Z,7.00
2019-03-05T15:51:44.490Z,7.00
2019-03-05T15:54:13.516Z,7.00
2019-03-05T15:56:42.144Z,6.90
2019-03-05T15:59:10.892Z,6.90
2019-03-05T16:01:39.604Z,6.90
2019-03-05T16:04:08.247Z,6.90
2019-03-05T16:06:36.931Z,6.90
2019-03-05T16:09:12.661Z,6.90
2019-03-05T16:11:41.392Z,6.80
2019-03-05T16:14:10.028Z,6.80
2019-03-05T16:16:38.737Z,6.80
2019-03-05T16:19:07.394Z,6.80
2019-03-05T16:21:37.221Z,6.70
2019-03-05T16:24:06.868Z,6.70
2019-03-05T16:26:35.904Z,6.70
2019-03-05T16:29:05.812Z,6.60
2019-03-05T16:31:56.301Z,6.60
2019-03-05T16:34:47.119Z,6.60
2019-03-05T16:37:31.468Z,6.60
2019-03-05T16:40:22.254Z,6.60
2019-03-05T16:43:02.106Z,6.50
2019-03-05T16:45:49.804Z,6.50
2019-03-05T16:48:37.544Z,6.50
2019-03-05T16:51:26.570Z,6.50
2019-03-05T16:54:24.039Z,6.40
2019-03-05T16:57:04.346Z,6.40
2019-03-05T16:59:53.216Z,6.40
2019-03-05T17:02:46.764Z,6.40
2019-03-05T17:05:41.160Z,6.40
2019-03-05T17:08:49.668Z,6.30
2019-03-05T17:11:45.304Z,6.20
2019-03-05T17:14:23.149Z,6.20
2019-03-05T17:16:51.833Z,6.10
2019-03-05T17:19:20.465Z,6.10
2019-03-05T17:21:49.206Z,6.10
2019-03-05T17:24:18.719Z,6.10
2019-03-05T17:26:47.383Z,6.00
2019-03-05T17:29:16.080Z,6.00
2019-03-05T17:31:44.868Z,5.90
2019-03-05T17:34:13.488Z,6.00
2019-03-05T17:36:42.144Z,5.90
2019-03-05T17:39:17.547Z,5.90
2019-03-05T17:41:46.207Z,5.90
2019-03-05T17:44:14.844Z,5.90
2019-03-05T17:46:44.839Z,5.80
2019-03-05T17:49:14.747Z,5.80
2019-03-05T17:51:43.467Z,5.80
2019-03-05T17:54:12.694Z,5.80
2019-03-05T17:56:41.420Z,5.80
2019-03-05T17:59:10.358Z,5.80
2019-03-05T18:01:39.040Z,5.90
2019-03-05T18:04:07.732Z,5.80
2019-03-05T18:06:36.394Z,5.80
2019-03-05T18:09:06.037Z,5.80
2019-03-05T18:11:34.678Z,5.70
2019-03-05T18:14:03.332Z,5.70
2019-03-05T18:16:32.028Z,5.70
2019-03-05T18:19:00.802Z,5.70
2019-03-05T18:21:29.443Z,5.70
2019-03-05T18:23:58.256Z,5.70
2019-03-05T18:26:26.981Z,5.60
2019-03-05T18:28:55.605Z,5.70
2019-03-05T18:31:24.274Z,5.70
2019-03-05T18:33:52.924Z,5.70
2019-03-05T18:36:21.847Z,5.70
2019-03-05T18:38:50.499Z,5.70
2019-03-05T18:41:19.124Z,5.60
2019-03-05T18:43:47.767Z,5.70
2019-03-05T18:46:16.400Z,5.70
2019-03-05T18:48:45.304Z,5.80
2019-03-05T18:51:13.963Z,5.70
2019-03-05T18:53:42.595Z,5.70
2019-03-05T18:56:11.246Z,5.70
2019-03-05T18:58:39.871Z,5.80
2019-03-05T19:01:09.756Z,5.80
2019-03-05T19:03:38.552Z,5.80
2019-03-05T19:06:07.181Z,5.80
2019-03-05T19:08:35.811Z,5.80
2019-03-05T19:11:04.479Z,5.80
2019-03-05T19:13:33.279Z,5.70
2019-03-05T19:16:02.141Z,5.80
2019-03-05T19:18:30.832Z,5.90
2019-03-05T19:20:59.456Z,5.80
2019-03-05T19:23:28.130Z,5.80
2019-03-05T19:25:57.493Z,5.80
2019-03-05T19:28:26.176Z,5.80
2019-03-05T19:30:54.811Z,5.80
2019-03-05T19:33:23.553Z,5.80
2019-03-05T19:35:52.175Z,5.80
2019-03-05T19:38:21.076Z,5.80
2019-03-05T19:40:49.724Z,5.80
2019-03-05T19:43:18.380Z,5.80
2019-03-05T19:45:47.064Z,5.80
2019-03-05T19:48:15.937Z,5.90
2019-03-05T19:50:45.264Z,5.90
2019-03-05T19:53:13.995Z,5.90
2019-03-05T19:55:42.628Z,5.90
2019-03-05T19:58:12.413Z,5.90
2019-03-05T20:01:00.487Z,5.90
2019-03-05T20:03:29.500Z,5.80
2019-03-05T20:05:58.474Z,5.90
2019-03-05T20:08:27.168Z,5.90
2019-03-05T20:10:55.838Z,5.90
2019-03-05T20:13:24.838Z,5.90
2019-03-05T20:15:53.494Z,6.00
2019-03-05T20:18:22.123Z,5.90
2019-03-05T20:20:50.785Z,5.90
2019-03-05T20:23:19.855Z,5.90
2019-03-05T20:25:48.492Z,5.90
2019-03-05T20:28:17.161Z,5.90
2019-03-05T20:30:45.884Z,5.80
2019-03-05T20:33:14.520Z,5.90
2019-03-05T20:35:43.180Z,5.80
2019-03-05T20:38:11.808Z,5.80
2019-03-05T20:40:40.527Z,5.80
2019-03-05T20:43:09.235Z,5.80
2019-03-05T20:45:37.867Z,5.80
2019-03-05T20:48:06.529Z,5.80
2019-03-05T20:50:35.476Z,5.80
2019-03-05T20:53:04.131Z,5.90
2019-03-05T20:55:32.798Z,5.90
2019-03-05T20:58:01.432Z,5.80
2019-03-05T21:00:30.983Z,5.80
2019-03-05T21:03:01.385Z,5.80
2019-03-05T21:05:32.437Z,5.70
2019-03-05T21:08:01.140Z,5.70
2019-03-05T21:10:29.768Z,5.60
2019-03-05T21:12:58.479Z,5.60
2019-03-05T21:15:27.573Z,5.60
2019-03-05T21:17:56.215Z,5.60
2019-03-05T21:20:24.830Z,5.60
2019-03-05T21:22:53.547Z,5.60
2019-03-05T21:25:22.213Z,5.60
2019-03-05T21:27:50.836Z,5.60
2019-03-05T21:30:19.679Z,5.60
2019-03-05T21:32:48.304Z,5.60
2019-03-05T21:35:16.932Z,5.50
2019-03-05T21:37:45.699Z,5.50
2019-03-05T21:40:17.051Z,5.50
2019-03-05T21:42:45.767Z,5.50
2019-03-05T21:45:23.589Z,5.50
2019-03-05T21:47:52.304Z,5.40
2019-03-05T21:50:23.035Z,5.50
2019-03-05T21:52:51.303Z,5.50
2019-03-05T21:55:19.928Z,5.50
2019-03-05T21:57:48.583Z,5.40
2019-03-05T22:00:19.749Z,5.40
2019-03-05T22:02:48.371Z,5.50
2019-03-05T22:05:17.016Z,5.50
2019-03-05T22:07:45.708Z,5.40
2019-03-05T22:10:16.155Z,5.40
2019-03-05T22:12:44.782Z,5.40
2019-03-05T22:15:15.256Z,5.50
2019-03-05T22:17:43.904Z,5.50
2019-03-05T22:20:13.092Z,5.50
2019-03-05T22:22:41.776Z,5.40
2019-03-05T22:25:11.631Z,5.50
2019-03-05T22:27:40.256Z,5.50
2019-03-05T22:30:18.339Z,5.60
2019-03-05T22:32:47.001Z,5.60
2019-03-05T22:35:16.637Z,5.50
2019-03-05T22:37:45.272Z,5.50
2019-03-05T22:40:14.208Z,5.60
2019-03-05T22:42:42.913Z,5.60
2019-03-05T22:45:14.319Z,5.60
2019-03-05T22:47:42.967Z,5.60
2019-03-05T22:50:11.600Z,5.60
2019-03-05T22:52:40.503Z,5.60
2019-03-05T22:55:09.276Z,5.60
2019-03-05T22:57:37.928Z,5.60
2019-03-05T23:00:10.508Z,5.60
